Time;durP1;ratioP1;P1;durP2;ratioP2;P2;SDS_P1;SDS_P2;PMS_P1;PMS_P2;Temp;Humidity;BMP_temperature;BMP_pressure;BME280_temperature;BME280_humidity;BME280_pressure;Samples;Min_cycle;Max_cycle;Signal;HPM_P1;HPM_P2
2021/11/13 00:00:34;;;;;;;1.35;0.90;;;;;;;6.05;67.82;99531.91;4986610;28;20080;-80
2021/11/13 00:03:00;;;;;;;1.58;1.00;;;;;;;5.98;67.57;99515.44;4979178;28;20041;-79
2021/11/13 00:05:26;;;;;;;1.00;0.90;;;;;;;6.04;67.18;99528.44;5004781;28;20056;-78
2021/11/13 00:07:52;;;;;;;1.52;1.00;;;;;;;6.11;67.14;99532.78;4988316;28;20504;-79
2021/11/13 00:10:26;;;;;;;1.40;0.90;;;;;;;6.09;67.19;99551.72;5005292;28;20042;-79
2021/11/13 00:12:57;;;;;;;1.23;1.00;;;;;;;6.08;67.59;99544.81;4980062;28;20133;-77
2021/11/13 00:15:24;;;;;;;1.10;0.95;;;;;;;6.07;67.10;99548.28;4980705;28;20125;-78
2021/11/13 00:17:54;;;;;;;1.10;1.00;;;;;;;6.05;67.49;99550.84;4981030;28;20040;-76
2021/11/13 00:20:22;;;;;;;1.73;1.00;;;;;;;5.67;67.50;99494.63;4979653;28;20046;-76
2021/11/13 00:22:49;;;;;;;2.05;0.82;;;;;;;5.97;67.13;99555.06;4992581;28;20030;-80
2021/11/13 00:25:16;;;;;;;3.33;0.90;;;;;;;5.94;67.48;99560.22;4995649;28;21155;-77
2021/11/13 00:27:43;;;;;;;1.40;1.00;;;;;;;5.76;67.15;99533.41;5013370;28;20046;-80
2021/11/13 00:30:12;;;;;;;1.20;1.10;;;;;;;5.86;67.29;99568.78;5004685;28;20456;-79
2021/11/13 00:32:38;;;;;;;1.90;1.10;;;;;;;5.68;67.58;99545.41;4988052;28;20049;-81
2021/11/13 00:35:04;;;;;;;1.40;1.00;;;;;;;5.78;67.43;99561.84;5000954;28;20050;-75
2021/11/13 00:37:30;;;;;;;2.28;1.17;;;;;;;5.65;67.87;99554.00;5001704;28;20073;-79
2021/11/13 00:39:56;;;;;;;1.88;1.00;;;;;;;5.77;68.21;99578.19;5008760;28;20119;-77
2021/11/13 00:42:22;;;;;;;1.80;1.10;;;;;;;5.69;67.90;99571.22;5023835;28;20580;-76
2021/11/13 00:44:48;;;;;;;1.23;1.10;;;;;;;5.78;68.01;99587.66;5000113;28;20052;-77
2021/11/13 00:47:15;;;;;;;1.60;1.02;;;;;;;5.85;68.32;99592.88;5001992;28;20924;-78
2021/11/13 00:49:41;;;;;;;1.77;1.65;;;;;;;5.72;67.92;99576.41;4997839;28;20069;-76
2021/11/13 00:52:07;;;;;;;2.15;0.95;;;;;;;5.91;67.98;99596.34;5014918;28;20502;-78
2021/11/13 00:54:33;;;;;;;1.75;0.90;;;;;;;5.83;67.66;99599.75;4991942;28;20057;-79
2021/11/13 00:57:01;;;;;;;2.17;0.93;;;;;;;5.77;67.40;99588.50;5000997;28;20478;-81
2021/11/13 00:59:27;;;;;;;2.28;1.02;;;;;;;5.87;68.32;99598.03;5002219;28;20049;-80
2021/11/13 01:01:53;;;;;;;2.38;0.80;;;;;;;5.85;67.97;99594.56;4999566;28;20038;-77
2021/11/13 01:04:19;;;;;;;0.90;0.75;;;;;;;5.78;67.37;99590.25;4988128;28;20073;-78
2021/11/13 01:06:44;;;;;;;0.95;0.65;;;;;;;5.85;67.92;99598.03;5003780;28;20061;-75
2021/11/13 01:09:10;;;;;;;0.88;0.70;;;;;;;5.97;67.69;99629.97;4999241;28;20072;-76
2021/11/13 01:11:37;;;;;;;1.08;0.95;;;;;;;5.91;67.39;99629.94;5001532;28;20560;-79
2021/11/13 01:14:03;;;;;;;1.00;0.80;;;;;;;5.93;67.23;99633.41;5001209;28;20397;-78
2021/11/13 01:16:29;;;;;;;1.40;0.80;;;;;;;5.85;67.26;99626.44;4988482;28;20041;-78
2021/11/13 01:18:56;;;;;;;1.23;0.80;;;;;;;5.95;67.86;99636.84;4999744;28;20347;-79
2021/11/13 01:21:23;;;;;;;0.80;0.80;;;;;;;5.92;67.17;99639.41;4994298;28;20038;-76
2021/11/13 01:23:49;;;;;;;0.95;0.80;;;;;;;5.80;67.16;99630.69;4999061;28;20125;-79
2021/11/13 01:26:19;;;;;;;0.80;0.80;;;;;;;5.81;67.02;99641.91;5005114;28;20546;-79
2021/11/13 01:28:45;;;;;;;1.15;0.70;;;;;;;5.81;67.77;99642.75;5006333;28;20053;-81
2021/11/13 01:31:14;;;;;;;1.95;0.95;;;;;;;5.78;67.80;99652.22;5002139;28;20058;-77
2021/11/13 01:33:43;;;;;;;1.42;0.75;;;;;;;5.81;67.18;99660.84;5002255;28;20562;-79
2021/11/13 01:36:09;;;;;;;1.48;0.77;;;;;;;5.76;67.26;99648.75;5001965;28;20038;-76
2021/11/13 01:38:36;;;;;;;1.80;0.70;;;;;;;5.81;67.62;99658.25;4989005;28;20049;-80
2021/11/13 01:41:04;;;;;;;1.50;0.77;;;;;;;5.91;67.16;99677.28;5007584;28;20042;-78
2021/11/13 01:43:36;;;;;;;1.02;0.60;;;;;;;5.95;67.26;99676.44;5007058;28;20058;-75
2021/11/13 01:46:04;;;;;;;0.73;0.60;;;;;;;5.88;66.91;99672.97;5006413;28;20045;-79
2021/11/13 01:48:31;;;;;;;0.60;0.60;;;;;;;5.91;66.93;99674.69;5004512;28;20050;-80
2021/11/13 01:50:58;;;;;;;0.60;0.60;;;;;;;5.90;66.60;99682.44;5001313;28;20101;-78
2021/11/13 01:53:26;;;;;;;0.82;0.60;;;;;;;5.94;66.85;99682.47;4989179;28;20240;-77
2021/11/13 01:55:54;;;;;;;1.13;0.70;;;;;;;5.92;66.69;99675.56;5007815;28;20513;-78
2021/11/13 01:58:20;;;;;;;0.65;0.57;;;;;;;5.85;67.13;99672.94;5008059;28;20073;-79
2021/11/13 02:00:53;;;;;;;1.67;0.68;;;;;;;5.99;66.48;99696.28;5009908;28;20042;-78
2021/11/13 02:03:22;;;;;;;0.38;0.38;;;;;;;6.01;66.59;99701.50;5004482;28;20525;-77
2021/11/13 02:05:48;;;;;;;0.60;0.52;;;;;;;5.77;66.27;99668.56;5004021;28;20050;-78
2021/11/13 02:08:15;;;;;;;1.15;0.50;;;;;;;5.86;65.90;99712.53;4989664;28;20065;-78
2021/11/13 02:10:41;;;;;;;0.50;0.50;;;;;;;5.85;66.22;99710.78;5005958;28;20095;-76
2021/11/13 02:13:07;;;;;;;1.05;0.60;;;;;;;5.86;66.31;99717.69;5004616;28;20038;-77
2021/11/13 02:15:33;;;;;;;0.80;0.50;;;;;;;5.72;65.82;99708.09;5003724;28;20037;-77
2021/11/13 02:18:00;;;;;;;0.68;0.50;;;;;;;5.87;65.96;99745.25;5006735;28;20203;-76
2021/11/13 02:20:36;;;;;;;0.95;0.57;;;;;;;5.87;66.15;99753.88;5001641;28;20034;-76
2021/11/13 02:23:11;;;;;;;0.73;0.60;;;;;;;5.92;65.89;99755.66;5016966;28;20065;-78
2021/11/13 02:25:37;;;;;;;0.85;0.47;;;;;;;5.85;66.00;99749.53;5004205;28;20038;-78
2021/11/13 02:28:06;;;;;;;0.50;0.50;;;;;;;5.83;65.44;99754.69;4985142;28;20069;-78
2021/11/13 02:30:32;;;;;;;0.50;0.50;;;;;;;5.89;65.90;99759.03;5012776;28;20054;-77
2021/11/13 02:32:58;;;;;;;0.60;0.60;;;;;;;5.84;65.75;99758.16;5009134;28;20050;-79
2021/11/13 02:35:27;;;;;;;1.80;0.70;;;;;;;5.93;65.96;99771.13;4989639;28;20053;-77
2021/11/13 02:37:53;;;;;;;1.08;0.75;;;;;;;5.94;65.77;99770.28;5012212;28;20073;-78
2021/11/13 02:40:20;;;;;;;1.38;0.50;;;;;;;5.90;65.81;99765.09;5004282;28;20144;-82
2021/11/13 02:42:49;;;;;;;0.95;0.60;;;;;;;6.01;65.79;99784.16;5004472;28;20045;-79
2021/11/13 02:45:17;;;;;;;1.30;0.80;;;;;;;6.08;65.57;99785.06;5005712;28;21024;-78
2021/11/13 02:47:45;;;;;;;1.27;0.70;;;;;;;5.96;65.22;99791.84;5004571;28;20104;-76
2021/11/13 02:50:13;;;;;;;0.60;0.60;;;;;;;5.89;65.68;99792.63;4991161;28;20525;-78
2021/11/13 02:53:03;;;;;;;0.73;0.68;;;;;;;5.93;65.81;99799.56;5004849;28;20517;-77
2021/11/13 02:55:30;;;;;;;0.75;0.60;;;;;;;5.87;65.21;99812.41;5004036;28;20104;-79
2021/11/13 02:57:56;;;;;;;0.68;0.68;;;;;;;5.82;66.13;99814.94;5005910;28;21880;-77
2021/11/13 03:00:27;;;;;;;2.15;0.70;;;;;;;5.79;65.92;99817.47;5009349;28;20425;-79
2021/11/13 03:02:53;;;;;;;2.00;0.60;;;;;;;5.70;66.20;99802.75;4978865;28;20084;-78
2021/11/13 03:05:44;;;;;;;1.50;0.70;;;;;;;5.82;65.93;99819.25;5004751;28;20068;-77
2021/11/13 03:08:10;;;;;;;0.80;0.80;;;;;;;5.78;66.07;99830.38;5005915;28;20116;-78
2021/11/13 03:10:37;;;;;;;0.65;0.63;;;;;;;5.72;66.39;99832.03;5011454;28;20532;-75
2021/11/13 03:13:04;;;;;;;0.75;0.60;;;;;;;5.72;65.99;99834.63;5004353;28;20057;-78
2021/11/13 03:15:30;;;;;;;0.77;0.70;;;;;;;5.68;66.27;99825.09;5000306;28;20466;-77
2021/11/13 03:17:58;;;;;;;0.75;0.68;;;;;;;5.69;65.33;99832.00;4990445;28;20669;-77
2021/11/13 03:20:28;;;;;;;1.05;0.73;;;;;;;5.73;66.32;99846.69;5001349;28;20041;-78
2021/11/13 03:22:55;;;;;;;0.88;0.70;;;;;;;5.60;66.12;99829.34;4991158;28;20117;-79
2021/11/13 03:25:24;;;;;;;1.05;0.90;;;;;;;5.65;66.24;99853.47;5001501;28;20144;-77
2021/11/13 03:27:53;;;;;;;1.02;0.80;;;;;;;5.48;66.68;99835.22;5005199;28;20045;-77
2021/11/13 03:30:22;;;;;;;0.80;0.80;;;;;;;5.54;66.16;99842.16;5004324;28;20545;-79
2021/11/13 03:32:51;;;;;;;1.42;0.90;;;;;;;5.63;66.59;99864.63;5003582;28;20046;-76
2021/11/13 03:35:19;;;;;;;0.85;0.80;;;;;;;5.62;67.18;99874.13;5002571;28;20050;-80
2021/11/13 03:37:46;;;;;;;1.13;0.80;;;;;;;5.55;66.50;99864.53;4978238;28;20141;-78
2021/11/13 03:40:12;;;;;;;1.08;0.98;;;;;;;5.54;67.34;99860.22;4986271;28;20042;-79
2021/11/13 03:42:41;;;;;;;1.15;0.82;;;;;;;5.57;66.93;99868.88;4990507;28;20425;-77
2021/11/13 03:45:08;;;;;;;1.58;0.75;;;;;;;5.60;67.24;99878.38;4988063;28;20048;-76
2021/11/13 03:47:34;;;;;;;0.77;0.70;;;;;;;5.66;67.44;99887.91;5003262;28;20479;-76
2021/11/13 03:50:00;;;;;;;1.23;0.70;;;;;;;5.67;67.45;99893.09;5002243;28;20041;-79
2021/11/13 03:52:27;;;;;;;1.00;0.80;;;;;;;5.53;67.00;99887.75;5001665;28;20046;-75
2021/11/13 03:54:53;;;;;;;1.30;0.70;;;;;;;5.55;67.85;99901.53;5004003;28;20494;-75
2021/11/13 03:57:18;;;;;;;1.23;0.80;;;;;;;5.69;67.59;99914.63;4999461;28;20046;-76
2021/11/13 03:59:44;;;;;;;2.00;0.90;;;;;;;5.75;67.23;99915.56;5002281;28;20037;-78
2021/11/13 04:02:10;;;;;;;2.15;1.00;;;;;;;5.62;66.98;99905.09;5005891;28;20038;-77
2021/11/13 04:04:41;;;;;;;1.25;0.95;;;;;;;5.70;67.25;99924.13;5005187;28;20065;-76
2021/11/13 04:07:07;;;;;;;1.17;1.08;;;;;;;5.65;67.79;99923.19;4983460;28;20133;-76
2021/11/13 04:09:33;;;;;;;1.02;0.93;;;;;;;5.69;67.38;99930.13;5003833;28;20483;-78
2021/11/13 04:12:04;;;;;;;3.10;1.33;;;;;;;5.57;66.62;99911.91;5001167;28;20175;-76
2021/11/13 04:14:35;;;;;;;1.92;1.23;;;;;;;5.59;67.50;99920.53;5004624;28;20049;-77
2021/11/13 04:17:04;;;;;;;1.80;1.20;;;;;;;5.71;67.63;99941.34;4989768;28;20041;-78
2021/11/13 04:19:30;;;;;;;2.25;1.17;;;;;;;5.69;67.70;99947.34;5001358;28;20038;-76
2021/11/13 04:21:56;;;;;;;2.70;1.30;;;;;;;5.63;67.41;99950.69;4987819;28;20053;-78
2021/11/13 04:24:23;;;;;;;2.00;1.10;;;;;;;5.63;67.13;99955.00;4988378;28;20550;-75
2021/11/13 04:26:49;;;;;;;1.33;1.05;;;;;;;5.62;68.22;99953.25;4967606;28;20034;-76
2021/11/13 04:29:15;;;;;;;1.60;1.30;;;;;;;5.54;67.47;99942.84;5002472;28;20051;-76
2021/11/13 04:31:41;;;;;;;1.08;0.95;;;;;;;5.56;67.40;99956.63;5008479;28;20058;-77
2021/11/13 04:34:14;;;;;;;2.10;1.33;;;;;;;5.51;68.08;99974.66;5004017;28;20049;-76
2021/11/13 04:36:46;;;;;;;1.75;1.20;;;;;;;5.57;68.01;99961.81;5000810;28;20061;-77
2021/11/13 04:39:13;;;;;;;2.47;1.23;;;;;;;5.50;67.40;99944.50;4989146;28;20048;-79
2021/11/13 04:41:40;;;;;;;1.83;1.15;;;;;;;5.50;67.47;99952.25;5001857;28;20042;-78
2021/11/13 04:44:06;;;;;;;1.85;1.40;;;;;;;5.50;67.41;99961.69;5004464;28;20494;-77
2021/11/13 04:46:32;;;;;;;1.83;1.35;;;;;;;5.61;67.77;99980.81;5005046;28;20048;-77
2021/11/13 04:48:58;;;;;;;2.03;1.40;;;;;;;5.63;66.95;99983.41;5011099;28;20080;-78
2021/11/13 04:51:26;;;;;;;1.98;1.50;;;;;;;5.60;67.76;99986.81;4998013;28;20042;-79
2021/11/13 04:53:52;;;;;;;3.05;1.48;;;;;;;5.52;67.59;99988.41;5003106;28;20037;-77
2021/11/13 04:56:17;;;;;;;1.67;1.13;;;;;;;5.57;67.61;99995.38;5001461;28;20092;-76
2021/11/13 04:58:43;;;;;;;2.45;1.50;;;;;;;5.52;67.62;99994.44;5001637;28;20049;-79
2021/11/13 05:01:09;;;;;;;2.35;1.52;;;;;;;5.60;67.29;100012.63;5004377;28;20050;-77
2021/11/13 05:03:36;;;;;;;2.35;1.40;;;;;;;5.54;67.63;99997.03;4971971;28;20484;-77
2021/11/13 05:06:02;;;;;;;2.80;1.30;;;;;;;5.61;67.51;100021.22;5001645;28;20069;-77
2021/11/13 05:08:28;;;;;;;2.58;1.55;;;;;;;5.60;66.98;100020.38;4997960;28;20065;-80
2021/11/13 05:10:54;;;;;;;2.58;1.50;;;;;;;5.52;67.52;100016.81;4968025;28;20061;-78
2021/11/13 05:13:21;;;;;;;1.67;1.30;;;;;;;5.48;67.70;100025.34;4998950;28;20069;-78
2021/11/13 05:15:47;;;;;;;2.92;1.50;;;;;;;5.32;67.22;99993.25;4999313;28;20038;-77
2021/11/13 05:18:13;;;;;;;1.73;1.30;;;;;;;5.58;67.91;100045.31;5006053;28;20077;-78
2021/11/13 05:24:07;;;;;;;2.88;1.70;;;;;;;5.01;67.47;99946.34;4992326;28;20085;-80
2021/11/13 05:26:33;;;;;;;2.25;1.20;;;;;;;5.68;66.74;100060.06;5006880;28;20088;-78
2021/11/13 05:28:59;;;;;;;3.28;1.67;;;;;;;5.64;66.88;100062.59;4992594;28;20397;-78
2021/11/13 05:31:25;;;;;;;3.63;1.55;;;;;;;5.64;67.04;100067.75;5022477;28;20062;-79
2021/11/13 05:33:51;;;;;;;2.05;1.52;;;;;;;5.65;66.92;100070.34;5008705;28;20531;-78
2021/11/13 05:36:19;;;;;;;1.98;1.40;;;;;;;5.65;66.99;100066.91;4992489;28;20302;-77
2021/11/13 05:38:45;;;;;;;2.90;1.30;;;;;;;5.68;66.87;100091.06;5023313;28;20046;-77
2021/11/13 05:41:11;;;;;;;1.85;1.40;;;;;;;5.65;66.72;100080.69;5024595;28;20132;-78
2021/11/13 05:43:37;;;;;;;2.25;1.40;;;;;;;5.73;67.09;100099.75;5025172;28;20051;-78
2021/11/13 05:46:02;;;;;;;1.45;1.20;;;;;;;5.70;66.19;100099.69;5008653;28;20041;-79
2021/11/13 05:48:28;;;;;;;1.45;1.35;;;;;;;5.70;66.91;100106.59;4994786;28;20041;-78
2021/11/13 05:50:54;;;;;;;1.73;1.35;;;;;;;5.81;67.14;100109.34;5012631;28;20037;-77
2021/11/13 05:53:20;;;;;;;2.40;1.80;;;;;;;5.67;66.63;100099.66;5009407;28;20037;-82
2021/11/13 05:55:45;;;;;;;2.05;1.40;;;;;;;5.81;66.78;100122.25;5017968;28;20032;-78
2021/11/13 05:58:13;;;;;;;1.50;1.30;;;;;;;5.77;66.36;100116.16;5001790;28;20103;-80
2021/11/13 06:00:41;;;;;;;1.65;1.38;;;;;;;5.60;66.48;100090.09;5006248;28;20037;-81
2021/11/13 06:03:06;;;;;;;1.92;1.30;;;;;;;5.54;66.69;100088.25;4995550;28;20041;-78
2021/11/13 06:05:32;;;;;;;2.47;1.70;;;;;;;5.85;67.05;100147.25;5012964;28;20443;-79
2021/11/13 06:07:58;;;;;;;1.98;1.58;;;;;;;5.73;66.43;100125.56;5017245;28;20042;-81
2021/11/13 06:10:24;;;;;;;2.28;1.30;;;;;;;5.83;66.50;100125.72;5014869;28;20044;-78
2021/11/13 06:12:49;;;;;;;2.30;1.40;;;;;;;5.91;66.37;100143.94;4997286;28;20052;-77
2021/11/13 06:15:16;;;;;;;1.40;1.10;;;;;;;5.82;65.78;100140.34;4988260;28;20244;-77
2021/11/13 06:17:42;;;;;;;1.70;1.20;;;;;;;5.71;66.01;100131.56;5023902;28;20056;-77
2021/11/13 06:20:09;;;;;;;1.40;1.27;;;;;;;5.54;65.73;100098.56;5026259;28;20045;-79
2021/11/13 06:22:36;;;;;;;1.65;1.17;;;;;;;5.91;66.03;100159.44;5027394;28;20063;-76
2021/11/13 06:25:08;;;;;;;2.47;1.27;;;;;;;5.82;66.11;100140.34;4995129;28;20057;-77
2021/11/13 06:27:37;;;;;;;1.65;1.15;;;;;;;5.77;65.74;100126.47;4989078;28;20434;-77
2021/11/13 06:30:05;;;;;;;1.30;1.20;;;;;;;5.98;65.79;100174.16;4986710;28;20053;-77
2021/11/13 06:32:31;;;;;;;1.25;1.15;;;;;;;5.92;65.87;100182.69;4997620;28;20099;-76
2021/11/13 06:34:59;;;;;;;1.55;1.02;;;;;;;5.83;66.01;100154.16;5033024;28;20041;-77
2021/11/13 06:37:26;;;;;;;2.25;1.30;;;;;;;6.07;66.06;100174.34;5006097;28;20140;-78
2021/11/13 06:39:52;;;;;;;1.30;1.20;;;;;;;6.07;65.66;100189.00;4995799;28;20118;-79
2021/11/13 06:42:18;;;;;;;1.25;1.08;;;;;;;6.08;65.71;100189.00;5009993;28;20141;-77
2021/11/13 06:44:48;;;;;;;2.00;1.30;;;;;;;6.07;65.71;100186.41;5023816;28;20373;-78
2021/11/13 06:47:13;;;;;;;1.98;1.20;;;;;;;6.07;65.64;100187.28;5006034;28;20049;-77
2021/11/13 06:49:40;;;;;;;1.45;1.30;;;;;;;6.01;65.77;100190.63;4996690;28;20037;-78
2021/11/13 06:52:08;;;;;;;3.50;1.60;;;;;;;6.12;65.79;100200.25;5007007;28;20038;-77
2021/11/13 06:54:35;;;;;;;1.65;1.23;;;;;;;6.07;65.88;100191.59;5024706;28;20457;-79
2021/11/13 06:57:01;;;;;;;2.83;1.35;;;;;;;6.12;66.20;100201.13;5027651;28;20105;-78
2021/11/13 06:59:27;;;;;;;1.70;1.30;;;;;;;6.24;65.91;100205.63;5011514;28;20077;-79
2021/11/13 07:01:55;;;;;;;2.70;1.20;;;;;;;6.02;65.18;100184.63;5011027;28;20472;-78
2021/11/13 07:04:22;;;;;;;1.90;1.38;;;;;;;5.99;64.65;100184.53;5035403;28;20037;-76
2021/11/13 07:06:57;;;;;;;2.40;1.20;;;;;;;6.07;64.69;100204.50;5032468;28;20056;-77
2021/11/13 07:09:23;;;;;;;1.80;1.40;;;;;;;6.25;65.05;100229.75;5010981;28;20080;-78
2021/11/13 07:11:50;;;;;;;1.50;1.33;;;;;;;6.29;65.07;100234.13;5029384;28;20033;-76
2021/11/13 07:14:16;;;;;;;2.20;1.50;;;;;;;6.29;65.20;100229.81;5010072;28;20135;-79
2021/11/13 07:16:43;;;;;;;1.50;1.25;;;;;;;6.14;64.69;100206.31;4978624;28;20037;-77
2021/11/13 07:19:09;;;;;;;1.30;1.20;;;;;;;6.20;64.36;100209.00;5010983;28;20046;-78
2021/11/13 07:21:38;;;;;;;3.17;1.30;;;;;;;6.47;64.61;100251.63;4994002;28;20059;-79
2021/11/13 07:24:05;;;;;;;3.53;1.40;;;;;;;6.20;64.74;100206.41;4994456;28;20065;-78
2021/11/13 07:26:31;;;;;;;2.40;1.60;;;;;;;6.49;64.44;100247.38;5023778;28;20117;-79
2021/11/13 07:29:03;;;;;;;2.40;1.40;;;;;;;6.38;64.57;100220.47;5009336;28;20725;-77
2021/11/13 07:31:33;;;;;;;1.45;1.20;;;;;;;6.15;64.52;100185.69;5004961;28;20132;-79
2021/11/13 07:33:59;;;;;;;2.22;1.27;;;;;;;6.46;64.08;100234.38;5006474;28;20101;-76
2021/11/13 07:36:26;;;;;;;1.70;1.30;;;;;;;6.58;64.33;100242.31;5003860;28;20096;-78
2021/11/13 07:38:53;;;;;;;3.03;1.20;;;;;;;6.74;64.13;100260.63;4990812;28;20050;-76
2021/11/13 07:41:21;;;;;;;1.48;1.30;;;;;;;6.65;64.52;100227.75;4991196;28;20053;-75
2021/11/13 07:43:47;;;;;;;1.63;1.40;;;;;;;6.64;64.39;100233.75;5005476;28;20039;-75
2021/11/13 07:46:14;;;;;;;2.25;1.33;;;;;;;6.78;63.95;100259.81;5005294;28;20049;-77
2021/11/13 07:48:42;;;;;;;2.22;1.58;;;;;;;6.67;64.15;100236.41;5003546;28;20103;-78
2021/11/13 07:51:08;;;;;;;1.63;1.45;;;;;;;6.73;63.80;100267.53;5003609;28;20038;-75
2021/11/13 07:53:35;;;;;;;3.47;1.63;;;;;;;6.81;64.13;100279.72;5001161;28;20038;-80
2021/11/13 07:56:01;;;;;;;2.35;1.50;;;;;;;6.80;63.72;100277.97;5005633;28;20534;-79
2021/11/13 07:58:27;;;;;;;2.08;1.40;;;;;;;6.59;63.84;100236.28;5008629;28;20049;-78
2021/11/13 08:00:53;;;;;;;2.67;1.30;;;;;;;6.67;64.05;100233.81;4990082;28;20490;-78
2021/11/13 08:03:19;;;;;;;4.03;1.60;;;;;;;6.92;63.68;100273.84;4973957;28;20114;-80
2021/11/13 08:05:45;;;;;;;4.25;1.60;;;;;;;7.15;63.85;100293.09;5004071;28;20045;-79
2021/11/13 08:08:11;;;;;;;2.05;1.70;;;;;;;7.21;63.68;100275.91;4989235;28;20042;-78
2021/11/13 08:10:41;;;;;;;2.40;1.52;;;;;;;7.36;63.63;100292.50;4991945;28;20042;-77
2021/11/13 08:13:12;;;;;;;1.52;1.42;;;;;;;7.32;63.28;100263.09;4998572;28;20046;-77
2021/11/13 08:15:38;;;;;;;1.73;1.45;;;;;;;7.53;62.92;100292.69;4990892;28;20053;-76
2021/11/13 08:18:07;;;;;;;1.90;1.45;;;;;;;7.53;62.77;100280.63;5005272;28;20405;-78
2021/11/13 08:20:33;;;;;;;3.90;1.92;;;;;;;7.37;62.13;100258.84;5004431;28;20041;-77
2021/11/13 08:22:59;;;;;;;2.78;2.30;;;;;;;7.69;62.77;100310.16;4992703;28;20184;-78
2021/11/13 08:25:26;;;;;;;1.83;1.42;;;;;;;7.60;62.32;100306.59;4991992;28;20038;-79
2021/11/13 08:27:52;;;;;;;2.15;1.70;;;;;;;7.32;62.22;100267.44;5007062;28;20092;-77
2021/11/13 08:30:18;;;;;;;3.35;1.67;;;;;;;7.28;62.00;100315.72;4996990;28;20053;-78
2021/11/13 08:32:45;;;;;;;2.72;1.60;;;;;;;7.20;62.47;100300.06;5006109;28;20096;-77
2021/11/13 08:35:12;;;;;;;1.90;1.45;;;;;;;7.40;62.03;100338.28;5002807;28;20048;-79
2021/11/13 08:37:40;;;;;;;2.78;1.45;;;;;;;7.32;62.00;100327.81;4991090;28;20038;-80
2021/11/13 08:40:08;;;;;;;2.72;1.40;;;;;;;7.33;61.64;100310.59;5002495;28;20034;-79
2021/11/13 08:42:35;;;;;;;3.00;1.95;;;;;;;7.31;62.19;100286.41;4988287;28;20567;-79
2021/11/13 08:45:01;;;;;;;9.98;6.05;;;;;;;7.63;61.83;100340.28;4989243;28;20305;-79
2021/11/13 08:47:27;;;;;;;4.68;3.10;;;;;;;7.66;62.03;100335.13;4990158;28;20093;-80
2021/11/13 08:49:53;;;;;;;2.50;1.92;;;;;;;7.58;61.67;100319.50;5007385;28;20033;-79
2021/11/13 08:52:20;;;;;;;7.20;4.00;;;;;;;7.65;61.29;100312.69;4994882;28;20050;-76
2021/11/13 08:54:48;;;;;;;12.55;5.57;;;;;;;8.02;61.59;100333.81;5006134;28;20040;-76
2021/11/13 08:57:14;;;;;;;11.13;5.10;;;;;;;7.98;61.20;100321.69;5008213;28;20042;-77
2021/11/13 08:59:40;;;;;;;3.28;1.85;;;;;;;8.04;60.81;100347.66;4989640;28;20035;-78
2021/11/13 09:02:12;;;;;;;5.25;3.38;;;;;;;7.89;60.79;100342.31;5005792;28;20408;-78
2021/11/13 09:04:39;;;;;;;1.55;1.20;;;;;;;7.83;60.96;100340.53;5004407;28;20053;-78
2021/11/13 09:07:07;;;;;;;6.95;3.97;;;;;;;7.88;60.70;100336.25;5000413;28;20042;-76
2021/11/13 09:09:38;;;;;;;2.47;1.25;;;;;;;7.93;60.25;100344.97;5023642;28;20045;-77
2021/11/13 09:12:06;;;;;;;3.33;1.55;;;;;;;7.87;60.49;100350.06;5004526;28;20133;-75
2021/11/13 09:14:33;;;;;;;1.50;1.20;;;;;;;7.96;60.68;100363.09;5025210;28;20144;-76
2021/11/13 09:17:03;;;;;;;2.47;1.35;;;;;;;8.08;60.24;100366.69;5025312;28;20620;-78
2021/11/13 09:19:30;;;;;;;2.38;1.52;;;;;;;7.93;60.08;100341.50;5007803;28;20030;-77
2021/11/13 09:21:56;;;;;;;2.35;1.38;;;;;;;7.98;59.91;100371.78;5030092;28;20132;-80
2021/11/13 09:24:23;;;;;;;4.43;1.52;;;;;;;7.94;59.55;100382.09;4996187;28;20048;-77
2021/11/13 09:26:49;;;;;;;5.13;2.15;;;;;;;7.90;59.96;100378.63;4987307;28;20034;-76
2021/11/13 09:29:22;;;;;;;2.17;1.70;;;;;;;7.75;59.80;100363.75;4986091;28;20103;-78
2021/11/13 09:31:49;;;;;;;2.88;1.63;;;;;;;7.82;59.61;100388.91;4973789;28;20045;-78
2021/11/13 09:34:18;;;;;;;3.85;1.42;;;;;;;7.78;59.79;100391.41;5002362;28;20058;-78
2021/11/13 09:36:45;;;;;;;4.50;1.67;;;;;;;7.69;59.81;100384.41;5003133;28;20057;-76
2021/11/13 09:39:12;;;;;;;3.20;1.60;;;;;;;7.71;59.89;100395.66;5006572;28;20046;-78
2021/11/13 09:41:38;;;;;;;3.88;1.70;;;;;;;7.66;59.95;100390.41;4993274;28;20057;-78
2021/11/13 09:44:07;;;;;;;3.63;1.67;;;;;;;7.66;59.87;100377.47;5006423;28;20049;-76
2021/11/13 09:46:34;;;;;;;2.70;1.45;;;;;;;7.69;59.75;100400.81;4987781;28;20050;-78
2021/11/13 09:49:01;;;;;;;2.92;1.70;;;;;;;7.59;59.35;100390.34;5000610;28;20038;-76
2021/11/13 09:51:28;;;;;;;3.33;1.80;;;;;;;7.47;59.79;100407.44;5005836;28;20041;-79
2021/11/13 09:53:54;;;;;;;3.22;1.80;;;;;;;7.49;59.97;100412.66;4985568;28;20044;-77
2021/11/13 09:56:23;;;;;;;2.78;1.70;;;;;;;7.38;60.44;100413.34;4984134;28;20046;-77
2021/11/13 09:58:51;;;;;;;2.88;1.77;;;;;;;7.37;60.06;100423.72;4984236;28;20057;-79
2021/11/13 10:01:18;;;;;;;5.63;1.90;;;;;;;7.36;59.87;100432.31;4975079;28;20045;-77
2021/11/13 10:03:47;;;;;;;3.03;1.92;;;;;;;7.35;60.48;100428.84;4991122;28;20069;-79
2021/11/13 10:06:15;;;;;;;2.50;2.13;;;;;;;7.28;59.98;100429.63;4988570;28;20080;-78
2021/11/13 10:08:46;;;;;;;2.53;1.98;;;;;;;7.29;60.32;100433.06;4991918;28;20060;-78
2021/11/13 10:11:22;;;;;;;5.90;1.80;;;;;;;7.07;61.16;100392.19;5005814;28;20127;-79
2021/11/13 10:13:57;;;;;;;4.35;2.00;;;;;;;7.46;60.83;100446.28;5006840;28;20034;-76
2021/11/13 10:16:33;;;;;;;3.65;1.92;;;;;;;7.48;60.96;100431.63;5004309;28;20062;-78
2021/11/13 10:19:08;;;;;;;2.53;1.67;;;;;;;7.68;60.95;100453.50;4987666;28;20033;-78
2021/11/13 10:21:37;;;;;;;2.92;1.90;;;;;;;7.73;60.97;100463.91;4987421;28;20053;-77
2021/11/13 10:24:15;;;;;;;2.95;1.90;;;;;;;7.62;60.40;100450.81;5001648;28;20033;-77
2021/11/13 10:26:47;;;;;;;3.20;1.65;;;;;;;7.71;60.80;100470.78;4988981;28;20052;-79
2021/11/13 10:29:24;;;;;;;2.85;1.73;;;;;;;7.69;60.77;100463.00;4998508;28;20038;-76
2021/11/13 10:31:56;;;;;;;3.17;1.70;;;;;;;7.70;60.58;100471.63;4971229;28;20132;-78
2021/11/13 10:34:36;;;;;;;3.60;2.10;;;;;;;7.88;60.73;100476.19;4985455;28;20126;-77
2021/11/13 10:37:17;;;;;;;5.55;1.73;;;;;;;7.84;59.99;100475.25;4983093;28;20046;-79
2021/11/13 10:39:46;;;;;;;5.60;1.60;;;;;;;7.95;60.12;100484.91;4981478;28;20038;-78
2021/11/13 10:42:21;;;;;;;3.28;1.30;;;;;;;7.94;60.01;100465.91;4983678;28;20046;-76
2021/11/13 10:45:01;;;;;;;1.38;1.08;;;;;;;8.10;60.08;100494.59;4971252;28;20101;-77
2021/11/13 10:47:30;;;;;;;;;;;;;;;8.21;59.95;100498.19;4972038;28;20046;-77
2021/11/13 10:50:24;;;;;;;1.65;1.10;;;;;;;8.07;59.46;100474.69;4971578;28;19930;-77
2021/11/13 10:53:12;;;;;;;3.85;1.30;;;;;;;8.08;59.54;100485.94;4962058;28;20050;-78
2021/11/13 10:56:05;;;;;;;2.85;1.30;;;;;;;8.13;58.32;100520.56;4990375;28;20049;-79
2021/11/13 10:58:34;;;;;;;5.15;1.70;;;;;;;7.87;58.69;100494.28;4983176;28;20038;-77
2021/11/13 11:01:06;;;;;;;2.47;1.60;;;;;;;7.42;58.96;100458.28;4975469;28;20043;-76
2021/11/13 11:03:41;;;;;;;2.13;1.93;;;;;;;7.45;58.85;100506.69;4987001;28;20035;-77
2021/11/13 11:06:10;;;;;;;1.83;1.42;;;;;;;7.45;59.50;100525.66;4983361;28;20038;-78
2021/11/13 11:08:40;;;;;;;2.17;1.90;;;;;;;7.32;59.67;100532.34;4974178;28;20074;-78
2021/11/13 11:11:35;;;;;;;1.90;1.33;;;;;;;7.27;60.18;100539.22;4989843;28;20038;-79
2021/11/13 11:14:05;;;;;;;1.95;1.10;;;;;;;7.26;60.51;100536.56;4987224;28;20108;-77
2021/11/13 11:16:37;;;;;;;2.75;1.40;;;;;;;7.15;60.55;100533.81;5001774;28;20057;-77
2021/11/13 11:19:06;;;;;;;;;;;;;;;7.11;61.00;100542.34;4970732;28;20042;-79
2021/11/13 11:21:49;;;;;;;2.53;1.70;;;;;;;7.04;61.34;100544.88;4969929;28;19918;-77
2021/11/13 11:24:23;;;;;;;3.80;1.88;;;;;;;6.99;61.42;100537.84;4984621;28;20038;-78
2021/11/13 11:27:00;;;;;;;2.90;1.80;;;;;;;7.04;61.64;100554.31;4978478;28;20038;-78
2021/11/13 11:29:28;;;;;;;3.17;1.58;;;;;;;6.90;61.36;100544.63;4983145;28;20134;-77
2021/11/13 11:32:07;;;;;;;4.05;1.60;;;;;;;6.97;62.22;100565.41;4994009;28;20497;-77
2021/11/13 11:34:36;;;;;;;2.15;1.60;;;;;;;6.87;61.43;100559.19;4988609;28;20037;-75
2021/11/13 11:37:20;;;;;;;4.28;2.47;;;;;;;6.97;62.21;100570.56;5003532;28;20045;-76
2021/11/13 11:39:56;;;;;;;4.05;1.92;;;;;;;6.93;62.48;100559.31;5024408;28;20053;-75
2021/11/13 11:42:23;;;;;;;2.58;1.67;;;;;;;6.91;62.40;100551.53;5003216;28;20117;-76
2021/11/13 11:44:51;;;;;;;2.60;1.77;;;;;;;7.10;62.16;100582.91;5008618;28;20482;-75